sensor_id;sensor_type;location;lat;lon;timestamp;P1;durP1;ratioP1;P2;durP2;ratioP2
77099;SDS011;66602;48.922;2.414;2024-03-22T00:01:52;21.40;;;14.93;;
77099;SDS011;66602;48.922;2.414;2024-03-22T00:04:19;26.02;;;15.00;;
77099;SDS011;66602;48.922;2.414;2024-03-22T00:06:49;22.85;;;13.98;;
77099;SDS011;66602;48.922;2.414;2024-03-22T00:09:15;25.52;;;14.57;;
77099;SDS011;66602;48.922;2.414;2024-03-22T00:11:41;25.00;;;14.93;;
77099;SDS011;66602;48.922;2.414;2024-03-22T00:14:08;21.27;;;14.32;;
77099;SDS011;66602;48.922;2.414;2024-03-22T00:16:35;27.20;;;15.15;;
77099;SDS011;66602;48.922;2.414;2024-03-22T00:19:01;31.88;;;17.17;;
77099;SDS011;66602;48.922;2.414;2024-03-22T00:21:28;28.25;;;15.30;;
77099;SDS011;66602;48.922;2.414;2024-03-22T00:23:54;33.90;;;15.18;;
77099;SDS011;66602;48.922;2.414;2024-03-22T00:26:20;17.80;;;14.52;;
77099;SDS011;66602;48.922;2.414;2024-03-22T00:28:46;25.75;;;15.52;;
77099;SDS011;66602;48.922;2.414;2024-03-22T00:31:12;19.13;;;14.05;;
77099;SDS011;66602;48.922;2.414;2024-03-22T00:33:37;17.60;;;14.40;;
77099;SDS011;66602;48.922;2.414;2024-03-22T00:36:03;22.42;;;15.77;;
77099;SDS011;66602;48.922;2.414;2024-03-22T00:38:29;24.23;;;16.50;;
77099;SDS011;66602;48.922;2.414;2024-03-22T00:40:54;19.20;;;14.82;;
77099;SDS011;66602;48.922;2.414;2024-03-22T00:43:20;23.10;;;15.18;;
77099;SDS011;66602;48.922;2.414;2024-03-22T00:45:46;26.15;;;15.98;;
77099;SDS011;66602;48.922;2.414;2024-03-22T00:48:12;22.30;;;15.60;;
77099;SDS011;66602;48.922;2.414;2024-03-22T00:50:37;23.48;;;16.00;;
77099;SDS011;66602;48.922;2.414;2024-03-22T00:53:03;18.15;;;14.77;;
77099;SDS011;66602;48.922;2.414;2024-03-22T00:55:30;22.00;;;14.63;;
77099;SDS011;66602;48.922;2.414;2024-03-22T00:57:56;25.00;;;17.67;;
77099;SDS011;66602;48.922;2.414;2024-03-22T01:00:24;27.67;;;18.13;;
77099;SDS011;66602;48.922;2.414;2024-03-22T01:02:50;19.15;;;15.88;;
77099;SDS011;66602;48.922;2.414;2024-03-22T01:05:16;27.15;;;17.35;;
77099;SDS011;66602;48.922;2.414;2024-03-22T01:07:42;23.00;;;15.85;;
77099;SDS011;66602;48.922;2.414;2024-03-22T01:10:08;25.52;;;18.20;;
77099;SDS011;66602;48.922;2.414;2024-03-22T01:12:34;25.63;;;17.48;;
77099;SDS011;66602;48.922;2.414;2024-03-22T01:15:00;31.55;;;16.88;;
77099;SDS011;66602;48.922;2.414;2024-03-22T01:17:25;33.08;;;19.55;;
77099;SDS011;66602;48.922;2.414;2024-03-22T01:19:51;33.28;;;19.27;;
77099;SDS011;66602;48.922;2.414;2024-03-22T01:22:17;34.72;;;18.85;;
77099;SDS011;66602;48.922;2.414;2024-03-22T01:24:43;32.17;;;19.52;;
77099;SDS011;66602;48.922;2.414;2024-03-22T01:27:09;31.35;;;19.58;;
77099;SDS011;66602;48.922;2.414;2024-03-22T01:29:35;44.70;;;22.23;;
77099;SDS011;66602;48.922;2.414;2024-03-22T01:32:01;32.25;;;20.48;;
77099;SDS011;66602;48.922;2.414;2024-03-22T01:34:26;37.00;;;20.38;;
77099;SDS011;66602;48.922;2.414;2024-03-22T01:36:52;25.67;;;17.02;;
77099;SDS011;66602;48.922;2.414;2024-03-22T01:39:18;34.85;;;21.13;;
77099;SDS011;66602;48.922;2.414;2024-03-22T01:41:46;28.42;;;18.80;;
77099;SDS011;66602;48.922;2.414;2024-03-22T01:44:12;31.85;;;20.17;;
77099;SDS011;66602;48.922;2.414;2024-03-22T01:46:39;27.17;;;18.77;;
77099;SDS011;66602;48.922;2.414;2024-03-22T01:49:09;25.08;;;18.20;;
77099;SDS011;66602;48.922;2.414;2024-03-22T01:51:36;27.08;;;17.48;;
77099;SDS011;66602;48.922;2.414;2024-03-22T01:54:02;29.85;;;19.38;;
77099;SDS011;66602;48.922;2.414;2024-03-22T01:56:29;36.80;;;19.08;;
77099;SDS011;66602;48.922;2.414;2024-03-22T01:58:55;30.90;;;19.67;;
77099;SDS011;66602;48.922;2.414;2024-03-22T02:01:22;28.27;;;18.35;;
77099;SDS011;66602;48.922;2.414;2024-03-22T02:03:48;25.13;;;19.45;;
77099;SDS011;66602;48.922;2.414;2024-03-22T02:06:13;25.90;;;18.75;;
77099;SDS011;66602;48.922;2.414;2024-03-22T02:08:39;32.85;;;20.88;;
77099;SDS011;66602;48.922;2.414;2024-03-22T02:11:06;40.20;;;19.95;;
77099;SDS011;66602;48.922;2.414;2024-03-22T02:13:32;30.08;;;20.58;;
77099;SDS011;66602;48.922;2.414;2024-03-22T02:15:58;31.13;;;19.42;;
77099;SDS011;66602;48.922;2.414;2024-03-22T02:18:23;34.95;;;19.88;;
77099;SDS011;66602;48.922;2.414;2024-03-22T02:20:49;34.80;;;19.63;;
77099;SDS011;66602;48.922;2.414;2024-03-22T02:23:15;32.83;;;19.75;;
77099;SDS011;66602;48.922;2.414;2024-03-22T02:25:40;27.15;;;19.42;;
77099;SDS011;66602;48.922;2.414;2024-03-22T02:28:06;24.27;;;18.92;;
77099;SDS011;66602;48.922;2.414;2024-03-22T02:30:31;32.50;;;19.17;;
77099;SDS011;66602;48.922;2.414;2024-03-22T02:32:57;29.02;;;19.17;;
77099;SDS011;66602;48.922;2.414;2024-03-22T02:35:22;31.63;;;19.70;;
77099;SDS011;66602;48.922;2.414;2024-03-22T02:37:48;31.50;;;20.23;;
77099;SDS011;66602;48.922;2.414;2024-03-22T02:40:13;25.17;;;18.92;;
77099;SDS011;66602;48.922;2.414;2024-03-22T02:42:39;28.65;;;18.45;;
77099;SDS011;66602;48.922;2.414;2024-03-22T02:45:05;26.08;;;17.98;;
77099;SDS011;66602;48.922;2.414;2024-03-22T02:47:30;21.10;;;17.00;;
77099;SDS011;66602;48.922;2.414;2024-03-22T02:49:56;23.77;;;17.23;;
77099;SDS011;66602;48.922;2.414;2024-03-22T02:52:21;36.38;;;19.50;;
77099;SDS011;66602;48.922;2.414;2024-03-22T02:54:46;31.02;;;18.45;;
77099;SDS011;66602;48.922;2.414;2024-03-22T02:57:12;27.25;;;17.95;;
77099;SDS011;66602;48.922;2.414;2024-03-22T02:59:37;29.13;;;19.92;;
77099;SDS011;66602;48.922;2.414;2024-03-22T03:02:03;26.13;;;16.83;;
77099;SDS011;66602;48.922;2.414;2024-03-22T03:04:28;22.40;;;17.00;;
77099;SDS011;66602;48.922;2.414;2024-03-22T03:06:54;24.77;;;18.13;;
77099;SDS011;66602;48.922;2.414;2024-03-22T03:09:21;35.67;;;19.05;;
77099;SDS011;66602;48.922;2.414;2024-03-22T03:11:46;29.85;;;19.35;;
77099;SDS011;66602;48.922;2.414;2024-03-22T03:14:12;28.27;;;18.92;;
77099;SDS011;66602;48.922;2.414;2024-03-22T03:16:37;28.23;;;18.35;;
77099;SDS011;66602;48.922;2.414;2024-03-22T03:19:02;34.97;;;19.23;;
77099;SDS011;66602;48.922;2.414;2024-03-22T03:21:28;22.27;;;15.93;;
77099;SDS011;66602;48.922;2.414;2024-03-22T03:23:54;21.17;;;17.27;;
77099;SDS011;66602;48.922;2.414;2024-03-22T03:26:19;27.95;;;18.70;;
77099;SDS011;66602;48.922;2.414;2024-03-22T03:28:45;24.67;;;18.05;;
77099;SDS011;66602;48.922;2.414;2024-03-22T03:31:10;26.63;;;17.15;;
77099;SDS011;66602;48.922;2.414;2024-03-22T03:33:36;22.13;;;16.25;;
77099;SDS011;66602;48.922;2.414;2024-03-22T03:36:01;28.60;;;19.45;;
77099;SDS011;66602;48.922;2.414;2024-03-22T03:38:26;31.65;;;20.38;;
77099;SDS011;66602;48.922;2.414;2024-03-22T03:40:52;30.80;;;20.67;;
77099;SDS011;66602;48.922;2.414;2024-03-22T03:43:17;32.45;;;20.10;;
77099;SDS011;66602;48.922;2.414;2024-03-22T03:45:43;30.55;;;19.58;;
77099;SDS011;66602;48.922;2.414;2024-03-22T03:48:09;33.17;;;19.02;;
77099;SDS011;66602;48.922;2.414;2024-03-22T03:50:35;37.88;;;20.48;;
77099;SDS011;66602;48.922;2.414;2024-03-22T03:53:00;28.65;;;20.15;;
77099;SDS011;66602;48.922;2.414;2024-03-22T03:55:26;27.00;;;19.63;;
77099;SDS011;66602;48.922;2.414;2024-03-22T03:57:51;46.30;;;23.55;;
77099;SDS011;66602;48.922;2.414;2024-03-22T04:00:19;33.95;;;21.42;;
77099;SDS011;66602;48.922;2.414;2024-03-22T04:02:44;27.40;;;20.00;;
77099;SDS011;66602;48.922;2.414;2024-03-22T04:05:10;27.10;;;19.20;;
77099;SDS011;66602;48.922;2.414;2024-03-22T04:07:36;35.28;;;19.00;;
77099;SDS011;66602;48.922;2.414;2024-03-22T04:10:01;27.02;;;18.23;;
77099;SDS011;66602;48.922;2.414;2024-03-22T04:12:27;31.55;;;19.25;;
77099;SDS011;66602;48.922;2.414;2024-03-22T04:14:54;32.45;;;21.20;;
77099;SDS011;66602;48.922;2.414;2024-03-22T04:17:19;30.38;;;19.75;;
77099;SDS011;66602;48.922;2.414;2024-03-22T04:19:45;43.67;;;21.88;;
77099;SDS011;66602;48.922;2.414;2024-03-22T04:22:10;21.65;;;18.35;;
77099;SDS011;66602;48.922;2.414;2024-03-22T04:24:36;24.33;;;18.60;;
77099;SDS011;66602;48.922;2.414;2024-03-22T04:27:01;36.72;;;21.52;;
77099;SDS011;66602;48.922;2.414;2024-03-22T04:29:27;30.52;;;19.58;;
77099;SDS011;66602;48.922;2.414;2024-03-22T04:31:52;40.70;;;20.75;;
77099;SDS011;66602;48.922;2.414;2024-03-22T04:34:18;30.55;;;19.67;;
77099;SDS011;66602;48.922;2.414;2024-03-22T04:36:43;29.20;;;19.05;;
77099;SDS011;66602;48.922;2.414;2024-03-22T04:39:09;25.33;;;18.95;;
77099;SDS011;66602;48.922;2.414;2024-03-22T04:41:37;29.73;;;20.95;;
77099;SDS011;66602;48.922;2.414;2024-03-22T04:44:02;43.03;;;23.98;;
77099;SDS011;66602;48.922;2.414;2024-03-22T04:46:28;35.55;;;21.65;;
77099;SDS011;66602;48.922;2.414;2024-03-22T04:48:53;29.67;;;20.33;;
77099;SDS011;66602;48.922;2.414;2024-03-22T04:51:19;36.90;;;20.27;;
77099;SDS011;66602;48.922;2.414;2024-03-22T04:53:44;30.98;;;20.88;;
77099;SDS011;66602;48.922;2.414;2024-03-22T04:56:10;27.90;;;20.77;;
77099;SDS011;66602;48.922;2.414;2024-03-22T04:58:35;42.53;;;21.38;;
77099;SDS011;66602;48.922;2.414;2024-03-22T05:01:00;45.22;;;24.15;;
77099;SDS011;66602;48.922;2.414;2024-03-22T05:03:26;30.13;;;20.08;;
77099;SDS011;66602;48.922;2.414;2024-03-22T05:05:51;30.85;;;19.77;;
77099;SDS011;66602;48.922;2.414;2024-03-22T05:08:17;39.72;;;21.58;;
77099;SDS011;66602;48.922;2.414;2024-03-22T05:10:43;26.30;;;19.42;;
77099;SDS011;66602;48.922;2.414;2024-03-22T05:13:08;26.80;;;18.98;;
77099;SDS011;66602;48.922;2.414;2024-03-22T05:15:34;33.80;;;19.88;;
77099;SDS011;66602;48.922;2.414;2024-03-22T05:17:59;30.45;;;20.95;;
77099;SDS011;66602;48.922;2.414;2024-03-22T05:20:25;30.90;;;21.20;;
77099;SDS011;66602;48.922;2.414;2024-03-22T05:22:51;45.78;;;25.15;;
77099;SDS011;66602;48.922;2.414;2024-03-22T05:25:17;41.65;;;22.33;;
77099;SDS011;66602;48.922;2.414;2024-03-22T05:27:43;44.03;;;23.55;;
77099;SDS011;66602;48.922;2.414;2024-03-22T05:30:09;38.58;;;22.77;;
77099;SDS011;66602;48.922;2.414;2024-03-22T05:32:35;35.00;;;22.17;;
77099;SDS011;66602;48.922;2.414;2024-03-22T05:35:01;30.17;;;20.83;;
77099;SDS011;66602;48.922;2.414;2024-03-22T05:37:26;29.88;;;19.75;;
77099;SDS011;66602;48.922;2.414;2024-03-22T05:39:52;30.17;;;20.20;;
77099;SDS011;66602;48.922;2.414;2024-03-22T05:42:17;23.83;;;19.45;;
77099;SDS011;66602;48.922;2.414;2024-03-22T05:44:44;35.83;;;20.35;;
77099;SDS011;66602;48.922;2.414;2024-03-22T05:47:09;32.15;;;21.95;;
77099;SDS011;66602;48.922;2.414;2024-03-22T05:49:35;48.35;;;23.70;;
77099;SDS011;66602;48.922;2.414;2024-03-22T05:52:00;29.92;;;21.83;;
77099;SDS011;66602;48.922;2.414;2024-03-22T05:54:26;33.20;;;22.58;;
77099;SDS011;66602;48.922;2.414;2024-03-22T05:56:51;33.50;;;22.30;;
77099;SDS011;66602;48.922;2.414;2024-03-22T05:59:17;42.33;;;23.38;;
77099;SDS011;66602;48.922;2.414;2024-03-22T06:01:42;35.55;;;22.30;;
77099;SDS011;66602;48.922;2.414;2024-03-22T06:04:08;39.28;;;22.70;;
77099;SDS011;66602;48.922;2.414;2024-03-22T06:06:34;40.05;;;23.08;;
77099;SDS011;66602;48.922;2.414;2024-03-22T06:09:00;40.13;;;23.02;;
77099;SDS011;66602;48.922;2.414;2024-03-22T06:11:34;49.25;;;22.73;;
77099;SDS011;66602;48.922;2.414;2024-03-22T06:13:59;40.50;;;22.60;;
77099;SDS011;66602;48.922;2.414;2024-03-22T06:16:25;40.53;;;22.60;;
77099;SDS011;66602;48.922;2.414;2024-03-22T06:18:51;34.78;;;21.65;;
77099;SDS011;66602;48.922;2.414;2024-03-22T06:21:16;33.45;;;20.52;;
77099;SDS011;66602;48.922;2.414;2024-03-22T06:23:48;40.88;;;20.88;;
77099;SDS011;66602;48.922;2.414;2024-03-22T06:26:15;36.80;;;21.65;;
77099;SDS011;66602;48.922;2.414;2024-03-22T06:28:40;42.33;;;23.10;;
77099;SDS011;66602;48.922;2.414;2024-03-22T06:31:06;38.38;;;22.60;;
77099;SDS011;66602;48.922;2.414;2024-03-22T06:33:31;43.22;;;22.38;;
77099;SDS011;66602;48.922;2.414;2024-03-22T06:35:57;34.53;;;21.65;;
77099;SDS011;66602;48.922;2.414;2024-03-22T06:38:22;50.28;;;22.02;;
77099;SDS011;66602;48.922;2.414;2024-03-22T06:40:48;40.90;;;21.85;;
77099;SDS011;66602;48.922;2.414;2024-03-22T06:43:13;37.92;;;22.02;;
77099;SDS011;66602;48.922;2.414;2024-03-22T06:45:39;34.83;;;20.63;;
77099;SDS011;66602;48.922;2.414;2024-03-22T06:48:04;34.88;;;21.05;;
77099;SDS011;66602;48.922;2.414;2024-03-22T06:50:30;39.78;;;21.30;;
77099;SDS011;66602;48.922;2.414;2024-03-22T06:52:55;31.95;;;20.48;;
77099;SDS011;66602;48.922;2.414;2024-03-22T06:55:21;44.15;;;21.13;;
77099;SDS011;66602;48.922;2.414;2024-03-22T06:57:49;32.60;;;20.60;;
77099;SDS011;66602;48.922;2.414;2024-03-22T07:00:16;35.53;;;21.02;;
77099;SDS011;66602;48.922;2.414;2024-03-22T07:02:42;35.60;;;19.75;;
77099;SDS011;66602;48.922;2.414;2024-03-22T07:05:09;35.20;;;20.70;;
77099;SDS011;66602;48.922;2.414;2024-03-22T07:07:35;33.00;;;20.00;;
77099;SDS011;66602;48.922;2.414;2024-03-22T07:10:01;24.50;;;17.67;;
77099;SDS011;66602;48.922;2.414;2024-03-22T07:12:28;33.22;;;19.23;;
77099;SDS011;66602;48.922;2.414;2024-03-22T07:14:54;35.38;;;19.25;;
77099;SDS011;66602;48.922;2.414;2024-03-22T07:17:20;36.28;;;21.48;;
77099;SDS011;66602;48.922;2.414;2024-03-22T07:19:50;45.83;;;19.35;;
77099;SDS011;66602;48.922;2.414;2024-03-22T07:22:19;34.33;;;20.58;;
77099;SDS011;66602;48.922;2.414;2024-03-22T07:24:46;28.45;;;18.60;;
77099;SDS011;66602;48.922;2.414;2024-03-22T07:27:16;39.50;;;19.40;;
77099;SDS011;66602;48.922;2.414;2024-03-22T07:29:41;32.30;;;19.38;;
77099;SDS011;66602;48.922;2.414;2024-03-22T07:32:07;43.45;;;18.70;;
77099;SDS011;66602;48.922;2.414;2024-03-22T07:34:32;35.30;;;18.75;;
77099;SDS011;66602;48.922;2.414;2024-03-22T07:36:58;31.05;;;19.13;;
77099;SDS011;66602;48.922;2.414;2024-03-22T07:39:24;29.65;;;17.58;;
77099;SDS011;66602;48.922;2.414;2024-03-22T07:41:49;21.67;;;16.95;;
77099;SDS011;66602;48.922;2.414;2024-03-22T07:44:15;37.65;;;19.63;;
77099;SDS011;66602;48.922;2.414;2024-03-22T07:46:43;30.85;;;18.20;;
77099;SDS011;66602;48.922;2.414;2024-03-22T07:49:09;21.73;;;16.00;;
77099;SDS011;66602;48.922;2.414;2024-03-22T07:51:35;31.25;;;17.08;;
77099;SDS011;66602;48.922;2.414;2024-03-22T07:54:00;29.80;;;16.27;;
77099;SDS011;66602;48.922;2.414;2024-03-22T07:56:27;23.75;;;16.25;;
77099;SDS011;66602;48.922;2.414;2024-03-22T07:58:53;27.58;;;16.20;;
77099;SDS011;66602;48.922;2.414;2024-03-22T08:01:18;19.15;;;15.95;;
77099;SDS011;66602;48.922;2.414;2024-03-22T08:03:44;25.77;;;15.95;;
77099;SDS011;66602;48.922;2.414;2024-03-22T08:06:09;25.10;;;15.10;;
77099;SDS011;66602;48.922;2.414;2024-03-22T08:08:35;21.92;;;13.82;;
77099;SDS011;66602;48.922;2.414;2024-03-22T08:11:01;17.42;;;14.02;;
77099;SDS011;66602;48.922;2.414;2024-03-22T08:13:26;19.60;;;13.88;;
77099;SDS011;66602;48.922;2.414;2024-03-22T08:15:52;19.65;;;14.07;;
77099;SDS011;66602;48.922;2.414;2024-03-22T08:18:17;21.88;;;13.48;;
77099;SDS011;66602;48.922;2.414;2024-03-22T08:20:43;16.23;;;13.55;;
77099;SDS011;66602;48.922;2.414;2024-03-22T08:23:08;25.70;;;15.13;;
77099;SDS011;66602;48.922;2.414;2024-03-22T08:25:34;16.80;;;14.95;;
77099;SDS011;66602;48.922;2.414;2024-03-22T08:27:59;17.92;;;13.88;;
77099;SDS011;66602;48.922;2.414;2024-03-22T08:30:25;17.77;;;13.40;;
77099;SDS011;66602;48.922;2.414;2024-03-22T08:32:51;18.45;;;14.68;;
77099;SDS011;66602;48.922;2.414;2024-03-22T08:35:17;21.75;;;14.10;;
77099;SDS011;66602;48.922;2.414;2024-03-22T08:37:43;17.50;;;13.90;;
77099;SDS011;66602;48.922;2.414;2024-03-22T08:40:09;15.52;;;13.15;;
77099;SDS011;66602;48.922;2.414;2024-03-22T08:42:36;24.17;;;14.70;;
77099;SDS011;66602;48.922;2.414;2024-03-22T08:45:02;19.15;;;14.63;;
77099;SDS011;66602;48.922;2.414;2024-03-22T08:47:29;19.52;;;13.73;;
77099;SDS011;66602;48.922;2.414;2024-03-22T08:49:55;20.15;;;14.40;;
77099;SDS011;66602;48.922;2.414;2024-03-22T08:52:22;18.08;;;14.40;;
77099;SDS011;66602;48.922;2.414;2024-03-22T08:54:49;21.00;;;13.90;;
77099;SDS011;66602;48.922;2.414;2024-03-22T08:57:15;21.27;;;13.65;;
77099;SDS011;66602;48.922;2.414;2024-03-22T08:59:41;22.05;;;14.32;;
77099;SDS011;66602;48.922;2.414;2024-03-22T09:02:06;26.98;;;13.50;;
77099;SDS011;66602;48.922;2.414;2024-03-22T09:04:32;15.02;;;13.00;;
77099;SDS011;66602;48.922;2.414;2024-03-22T09:06:57;19.08;;;13.05;;
77099;SDS011;66602;48.922;2.414;2024-03-22T09:09:23;18.85;;;13.48;;
77099;SDS011;66602;48.922;2.414;2024-03-22T09:11:49;21.17;;;13.77;;
77099;SDS011;66602;48.922;2.414;2024-03-22T09:14:14;20.73;;;13.38;;
77099;SDS011;66602;48.922;2.414;2024-03-22T09:16:40;17.13;;;13.25;;
77099;SDS011;66602;48.922;2.414;2024-03-22T09:19:05;17.15;;;12.70;;
77099;SDS011;66602;48.922;2.414;2024-03-22T09:21:31;22.35;;;12.70;;
77099;SDS011;66602;48.922;2.414;2024-03-22T09:23:57;21.63;;;12.18;;
77099;SDS011;66602;48.922;2.414;2024-03-22T09:26:22;21.50;;;12.18;;
77099;SDS011;66602;48.922;2.414;2024-03-22T09:28:48;14.90;;;12.50;;
77099;SDS011;66602;48.922;2.414;2024-03-22T09:31:15;16.42;;;12.73;;
77099;SDS011;66602;48.922;2.414;2024-03-22T09:33:41;20.25;;;12.90;;
77099;SDS011;66602;48.922;2.414;2024-03-22T09:36:07;26.92;;;13.68;;
77099;SDS011;66602;48.922;2.414;2024-03-22T09:38:33;20.30;;;13.57;;
77099;SDS011;66602;48.922;2.414;2024-03-22T09:40:58;26.63;;;13.90;;
77099;SDS011;66602;48.922;2.414;2024-03-22T09:43:24;21.55;;;13.95;;
77099;SDS011;66602;48.922;2.414;2024-03-22T09:45:52;15.90;;;14.00;;
77099;SDS011;66602;48.922;2.414;2024-03-22T09:48:19;17.98;;;14.77;;
77099;SDS011;66602;48.922;2.414;2024-03-22T09:50:45;23.05;;;16.83;;
77099;SDS011;66602;48.922;2.414;2024-03-22T09:53:18;29.48;;;16.95;;
77099;SDS011;66602;48.922;2.414;2024-03-22T09:55:48;28.42;;;17.33;;
77099;SDS011;66602;48.922;2.414;2024-03-22T09:58:14;22.10;;;17.02;;
77099;SDS011;66602;48.922;2.414;2024-03-22T10:00:42;20.85;;;16.88;;
77099;SDS011;66602;48.922;2.414;2024-03-22T10:03:08;22.88;;;16.50;;
77099;SDS011;66602;48.922;2.414;2024-03-22T10:05:37;27.35;;;17.33;;
77099;SDS011;66602;48.922;2.414;2024-03-22T10:08:05;19.10;;;16.08;;
77099;SDS011;66602;48.922;2.414;2024-03-22T10:10:32;19.65;;;15.68;;
77099;SDS011;66602;48.922;2.414;2024-03-22T10:13:00;31.75;;;16.02;;
77099;SDS011;66602;48.922;2.414;2024-03-22T10:15:26;24.45;;;14.95;;
77099;SDS011;66602;48.922;2.414;2024-03-22T10:17:51;20.42;;;15.82;;
77099;SDS011;66602;48.922;2.414;2024-03-22T10:20:19;24.65;;;16.80;;
77099;SDS011;66602;48.922;2.414;2024-03-22T10:22:48;15.90;;;13.98;;
77099;SDS011;66602;48.922;2.414;2024-03-22T10:25:20;17.45;;;15.63;;
77099;SDS011;66602;48.922;2.414;2024-03-22T10:27:45;16.38;;;13.82;;
77099;SDS011;66602;48.922;2.414;2024-03-22T10:30:11;17.40;;;13.63;;
77099;SDS011;66602;48.922;2.414;2024-03-22T10:32:40;14.82;;;13.20;;
77099;SDS011;66602;48.922;2.414;2024-03-22T10:35:06;17.27;;;13.43;;
77099;SDS011;66602;48.922;2.414;2024-03-22T10:37:34;13.15;;;11.95;;
77099;SDS011;66602;48.922;2.414;2024-03-22T10:40:02;15.82;;;12.90;;
77099;SDS011;66602;48.922;2.414;2024-03-22T10:42:41;15.30;;;12.90;;
77099;SDS011;66602;48.922;2.414;2024-03-22T10:45:08;14.70;;;13.15;;
77099;SDS011;66602;48.922;2.414;2024-03-22T10:47:35;18.17;;;13.52;;
77099;SDS011;66602;48.922;2.414;2024-03-22T10:50:08;18.35;;;12.57;;
77099;SDS011;66602;48.922;2.414;2024-03-22T10:52:39;15.43;;;13.40;;
77099;SDS011;66602;48.922;2.414;2024-03-22T10:55:32;24.77;;;14.43;;
77099;SDS011;66602;48.922;2.414;2024-03-22T10:57:59;20.20;;;12.75;;
77099;SDS011;66602;48.922;2.414;2024-03-22T11:00:28;13.57;;;12.30;;
77099;SDS011;66602;48.922;2.414;2024-03-22T11:02:54;14.70;;;11.90;;
77099;SDS011;66602;48.922;2.414;2024-03-22T11:05:20;18.63;;;11.57;;
77099;SDS011;66602;48.922;2.414;2024-03-22T11:07:46;18.52;;;12.30;;
77099;SDS011;66602;48.922;2.414;2024-03-22T11:10:12;14.68;;;11.13;;
77099;SDS011;66602;48.922;2.414;2024-03-22T11:12:38;13.57;;;12.18;;
77099;SDS011;66602;48.922;2.414;2024-03-22T11:15:05;13.70;;;11.27;;
77099;SDS011;66602;48.922;2.414;2024-03-22T11:17:31;15.45;;;11.15;;
77099;SDS011;66602;48.922;2.414;2024-03-22T11:19:57;15.73;;;11.25;;
77099;SDS011;66602;48.922;2.414;2024-03-22T11:22:22;15.25;;;11.20;;
77099;SDS011;66602;48.922;2.414;2024-03-22T11:24:51;11.93;;;10.88;;
77099;SDS011;66602;48.922;2.414;2024-03-22T11:30:39;17.98;;;11.25;;
77099;SDS011;66602;48.922;2.414;2024-03-22T11:33:04;13.15;;;11.65;;
77099;SDS011;66602;48.922;2.414;2024-03-22T11:35:30;19.38;;;11.48;;
77099;SDS011;66602;48.922;2.414;2024-03-22T11:37:56;15.15;;;10.75;;
77099;SDS011;66602;48.922;2.414;2024-03-22T11:40:23;13.25;;;11.02;;
77099;SDS011;66602;48.922;2.414;2024-03-22T11:42:51;16.70;;;10.88;;
77099;SDS011;66602;48.922;2.414;2024-03-22T11:45:19;10.93;;;9.57;;
77099;SDS011;66602;48.922;2.414;2024-03-22T11:47:46;11.35;;;10.32;;
77099;SDS011;66602;48.922;2.414;2024-03-22T11:50:11;10.77;;;9.88;;
77099;SDS011;66602;48.922;2.414;2024-03-22T11:52:40;10.15;;;9.30;;
77099;SDS011;66602;48.922;2.414;2024-03-22T11:55:06;11.07;;;10.02;;
77099;SDS011;66602;48.922;2.414;2024-03-22T11:57:32;19.33;;;9.15;;
77099;SDS011;66602;48.922;2.414;2024-03-22T12:00:01;9.90;;;9.10;;
77099;SDS011;66602;48.922;2.414;2024-03-22T12:02:31;9.13;;;8.32;;
77099;SDS011;66602;48.922;2.414;2024-03-22T12:04:57;9.55;;;8.65;;
77099;SDS011;66602;48.922;2.414;2024-03-22T12:07:23;9.35;;;8.60;;
77099;SDS011;66602;48.922;2.414;2024-03-22T12:09:49;8.82;;;8.32;;
77099;SDS011;66602;48.922;2.414;2024-03-22T12:12:14;9.90;;;8.95;;
77099;SDS011;66602;48.922;2.414;2024-03-22T12:14:40;10.45;;;9.45;;
77099;SDS011;66602;48.922;2.414;2024-03-22T12:17:06;8.98;;;8.13;;
77099;SDS011;66602;48.922;2.414;2024-03-22T12:19:32;9.45;;;8.68;;
77099;SDS011;66602;48.922;2.414;2024-03-22T12:21:58;12.52;;;9.13;;
77099;SDS011;66602;48.922;2.414;2024-03-22T12:24:23;10.07;;;9.02;;
77099;SDS011;66602;48.922;2.414;2024-03-22T12:26:49;9.65;;;8.85;;
77099;SDS011;66602;48.922;2.414;2024-03-22T12:29:16;10.02;;;9.07;;
77099;SDS011;66602;48.922;2.414;2024-03-22T12:31:42;9.55;;;8.63;;
77099;SDS011;66602;48.922;2.414;2024-03-22T12:34:08;8.95;;;8.32;;
77099;SDS011;66602;48.922;2.414;2024-03-22T12:36:33;11.40;;;8.82;;
77099;SDS011;66602;48.922;2.414;2024-03-22T12:38:59;13.63;;;8.68;;
77099;SDS011;66602;48.922;2.414;2024-03-22T12:41:25;10.90;;;8.70;;
77099;SDS011;66602;48.922;2.414;2024-03-22T12:43:51;10.88;;;9.43;;
77099;SDS011;66602;48.922;2.414;2024-03-22T12:46:17;14.98;;;8.27;;
77099;SDS011;66602;48.922;2.414;2024-03-22T12:48:42;13.40;;;9.55;;
77099;SDS011;66602;48.922;2.414;2024-03-22T12:51:08;9.30;;;8.63;;
77099;SDS011;66602;48.922;2.414;2024-03-22T12:53:33;12.05;;;8.50;;
77099;SDS011;66602;48.922;2.414;2024-03-22T12:55:59;10.25;;;8.00;;
77099;SDS011;66602;48.922;2.414;2024-03-22T12:58:24;10.63;;;7.88;;
77099;SDS011;66602;48.922;2.414;2024-03-22T13:00:50;10.77;;;8.18;;
77099;SDS011;66602;48.922;2.414;2024-03-22T13:03:15;9.10;;;8.35;;
77099;SDS011;66602;48.922;2.414;2024-03-22T13:05:41;8.65;;;7.65;;
77099;SDS011;66602;48.922;2.414;2024-03-22T13:08:07;7.75;;;7.03;;
77099;SDS011;66602;48.922;2.414;2024-03-22T13:10:33;11.18;;;8.50;;
77099;SDS011;66602;48.922;2.414;2024-03-22T13:12:58;10.38;;;7.53;;
77099;SDS011;66602;48.922;2.414;2024-03-22T13:15:24;7.95;;;7.30;;
77099;SDS011;66602;48.922;2.414;2024-03-22T13:17:50;12.00;;;7.70;;
77099;SDS011;66602;48.922;2.414;2024-03-22T13:20:16;12.57;;;7.68;;
77099;SDS011;66602;48.922;2.414;2024-03-22T13:22:43;14.20;;;7.80;;
77099;SDS011;66602;48.922;2.414;2024-03-22T13:25:08;10.80;;;7.50;;
77099;SDS011;66602;48.922;2.414;2024-03-22T13:27:35;6.70;;;6.30;;
77099;SDS011;66602;48.922;2.414;2024-03-22T13:30:04;8.57;;;6.70;;
77099;SDS011;66602;48.922;2.414;2024-03-22T13:32:31;5.60;;;5.05;;
77099;SDS011;66602;48.922;2.414;2024-03-22T13:34:56;5.53;;;5.03;;
77099;SDS011;66602;48.922;2.414;2024-03-22T13:37:22;5.50;;;5.20;;
77099;SDS011;66602;48.922;2.414;2024-03-22T13:39:48;5.57;;;4.90;;
77099;SDS011;66602;48.922;2.414;2024-03-22T13:42:15;7.00;;;4.80;;
77099;SDS011;66602;48.922;2.414;2024-03-22T13:44:41;6.88;;;4.70;;
77099;SDS011;66602;48.922;2.414;2024-03-22T13:47:07;4.38;;;3.97;;
77099;SDS011;66602;48.922;2.414;2024-03-22T13:49:32;7.65;;;4.07;;
77099;SDS011;66602;48.922;2.414;2024-03-22T13:51:58;4.22;;;3.90;;
77099;SDS011;66602;48.922;2.414;2024-03-22T13:54:24;3.50;;;3.20;;
77099;SDS011;66602;48.922;2.414;2024-03-22T13:56:50;5.90;;;3.80;;
77099;SDS011;66602;48.922;2.414;2024-03-22T13:59:16;8.43;;;5.40;;
77099;SDS011;66602;48.922;2.414;2024-03-22T14:01:41;4.07;;;3.28;;
77099;SDS011;66602;48.922;2.414;2024-03-22T14:04:10;3.17;;;2.83;;
77099;SDS011;66602;48.922;2.414;2024-03-22T14:06:38;6.55;;;3.40;;
77099;SDS011;66602;48.922;2.414;2024-03-22T14:09:03;11.43;;;3.63;;
77099;SDS011;66602;48.922;2.414;2024-03-22T14:11:30;8.73;;;4.15;;
77099;SDS011;66602;48.922;2.414;2024-03-22T14:13:59;7.63;;;5.32;;
77099;SDS011;66602;48.922;2.414;2024-03-22T14:16:24;6.97;;;5.10;;
77099;SDS011;66602;48.922;2.414;2024-03-22T14:18:51;6.43;;;4.95;;
77099;SDS011;66602;48.922;2.414;2024-03-22T14:21:17;6.72;;;4.22;;
77099;SDS011;66602;48.922;2.414;2024-03-22T14:23:47;6.57;;;4.10;;